createdAt,value
2019-02-05T18:44:30.879Z,10.78
2019-02-05T18:46:58.567Z,10.43
2019-02-05T18:49:25.826Z,10.63
2019-02-05T18:51:53.099Z,10.05
2019-02-05T18:54:20.358Z,9.55
2019-02-05T18:56:47.610Z,9.95
2019-02-05T18:59:14.863Z,9.98
2019-02-05T19:01:42.113Z,9.73
2019-02-05T19:04:09.365Z,9.48
2019-02-05T19:06:36.630Z,9.93
2019-02-05T19:09:05.510Z,9.48
2019-02-05T19:11:32.772Z,9.43
2019-02-05T19:14:00.092Z,9.43
2019-02-05T19:16:27.356Z,9.33
2019-02-05T19:18:54.714Z,9.58
2019-02-05T19:21:21.975Z,9.75
2019-02-05T19:23:49.621Z,9.50
2019-02-05T19:26:16.890Z,9.23
2019-02-05T19:28:44.246Z,9.25
2019-02-05T19:31:11.833Z,8.68
2019-02-05T19:33:39.174Z,9.58
2019-02-05T19:36:06.666Z,8.40
2019-02-05T19:38:33.929Z,9.30
2019-02-05T19:41:01.700Z,8.83
2019-02-05T19:43:28.949Z,8.85
2019-02-05T19:45:56.192Z,8.60
2019-02-05T19:48:23.631Z,8.88
2019-02-05T19:50:51.267Z,8.83
2019-02-05T19:53:18.558Z,7.97
2019-02-05T19:55:45.873Z,8.80
2019-02-05T19:58:13.146Z,8.20
2019-02-05T20:00:40.577Z,8.63
2019-02-05T20:03:07.844Z,8.38
2019-02-05T20:05:35.086Z,8.35
2019-02-05T20:08:02.349Z,8.43
2019-02-05T20:10:29.659Z,8.15
2019-02-05T20:12:56.917Z,8.75
2019-02-05T20:15:24.171Z,8.55
2019-02-05T20:17:51.433Z,8.10
2019-02-05T20:20:19.362Z,8.48
2019-02-05T20:22:47.216Z,8.33
2019-02-05T20:25:15.233Z,8.63
2019-02-05T20:27:42.505Z,9.05
2019-02-05T20:30:29.281Z,8.73
2019-02-05T20:32:56.575Z,8.38
2019-02-05T20:35:23.826Z,8.28
2019-02-05T20:37:51.495Z,8.65
2019-02-05T20:40:26.256Z,8.35
2019-02-05T20:42:53.606Z,7.60
2019-02-05T20:45:20.857Z,7.78
2019-02-05T20:47:48.118Z,7.95
2019-02-05T20:50:18.673Z,8.20
2019-02-05T20:52:45.937Z,7.83
2019-02-05T20:55:20.705Z,7.92
2019-02-05T20:57:48.051Z,8.03
2019-02-05T21:00:19.910Z,7.67
2019-02-05T21:02:47.186Z,8.05
2019-02-05T21:05:16.065Z,8.18
2019-02-05T21:07:43.350Z,8.05
2019-02-05T21:10:12.453Z,7.95
2019-02-05T21:12:39.722Z,7.78
2019-02-05T21:15:09.230Z,8.05
2019-02-05T21:17:36.810Z,7.78
2019-02-05T21:20:05.693Z,8.13
2019-02-05T21:22:33.084Z,7.03
2019-02-05T21:25:00.334Z,7.90
2019-02-05T21:27:27.577Z,7.22
2019-02-05T21:29:55.330Z,6.87
2019-02-05T21:32:22.588Z,6.62
2019-02-05T21:34:49.854Z,7.20
2019-02-05T21:37:17.102Z,7.03
2019-02-05T21:39:44.363Z,7.05
2019-02-05T21:42:11.604Z,7.08
2019-02-05T21:44:38.871Z,6.85
2019-02-05T21:47:06.118Z,6.95
